Time;durP1;ratioP1;P1;durP2;ratioP2;P2;SDS_P1;SDS_P2;PMS_P1;PMS_P2;Temp;Humidity;BMP_temperature;BMP_pressure;BME280_temperature;BME280_humidity;BME280_pressure;Samples;Min_cycle;Max_cycle;Signal;HPM_P1;HPM_P2
2021/05/28 00:01:02;;;;;;;751.35;64.55;;;;;;;15.69;82.74;99096.19;4940718;29;20051;-64
2021/05/28 00:03:28;;;;;;;526.90;56.03;;;;;;;15.73;82.55;99100.72;4942389;29;20142;-64
2021/05/28 00:05:54;;;;;;;251.27;49.58;;;;;;;15.70;82.97;99092.31;4941484;28;20491;-62
2021/05/28 00:08:20;;;;;;;345.65;46.55;;;;;;;15.74;83.26;99096.00;4942372;29;20043;-63
2021/05/28 00:10:46;;;;;;;393.60;50.28;;;;;;;15.80;83.19;99102.16;4938086;29;20040;-64
2021/05/28 00:13:12;;;;;;;239.23;46.72;;;;;;;15.87;83.21;99105.22;4940953;28;20047;-63
2021/05/28 00:15:39;;;;;;;1036.63;75.38;;;;;;;15.84;83.70;99092.94;4942294;29;20516;-63
2021/05/28 00:18:08;;;;;;;322.15;47.88;;;;;;;15.88;83.82;99091.13;4942715;28;20477;-64
2021/05/28 00:20:34;;;;;;;795.90;52.78;;;;;;;15.91;83.95;99089.69;4940719;29;20055;-65
2021/05/28 00:23:01;;;;;;;671.63;53.35;;;;;;;15.96;84.21;99081.25;4942636;28;20044;-63
2021/05/28 00:25:29;;;;;;;842.08;60.00;;;;;;;15.95;84.19;99079.63;4928509;29;20056;-63
2021/05/28 00:27:54;;;;;;;;;;;;;;;15.95;84.21;99076.06;4922474;28;20047;-65
2021/05/28 00:30:21;;;;;;;409.70;44.38;;;;;;;15.98;83.92;99075.38;4938307;28;20314;-65
2021/05/28 00:32:47;;;;;;;319.48;41.40;;;;;;;16.07;83.81;99067.09;4941565;28;20055;-64
2021/05/28 00:35:17;;;;;;;482.38;49.38;;;;;;;16.04;84.01;99070.50;4938526;29;20051;-63
2021/05/28 00:37:43;;;;;;;191.95;39.38;;;;;;;16.05;83.77;99066.63;4942254;28;20138;-66
2021/05/28 00:40:10;;;;;;;681.83;50.20;;;;;;;16.03;83.98;99061.44;4938047;29;20536;-63
2021/05/28 00:42:36;;;;;;;431.48;42.25;;;;;;;15.97;84.01;99066.31;4943029;29;20059;-65
2021/05/28 00:45:03;;;;;;;1174.80;64.10;;;;;;;16.01;84.42;99061.75;4940005;28;20051;-65
2021/05/28 00:47:29;;;;;;;584.47;43.90;;;;;;;16.05;84.06;99070.19;4942798;28;20073;-64
2021/05/28 00:49:55;;;;;;;743.42;51.88;;;;;;;16.05;83.98;99072.94;4940300;29;20532;-64
2021/05/28 00:52:23;;;;;;;607.75;46.92;;;;;;;16.01;84.13;99081.06;4944097;29;20059;-65
2021/05/28 00:54:49;;;;;;;599.83;54.03;;;;;;;15.94;84.43;99080.78;4941147;28;20516;-65
2021/05/28 00:57:16;;;;;;;826.53;61.73;;;;;;;15.95;84.80;99084.31;4941884;29;20039;-64
2021/05/28 00:59:43;;;;;;;499.95;49.40;;;;;;;15.87;84.88;99070.22;4941615;28;20845;-64
2021/05/28 01:02:10;;;;;;;429.80;46.83;;;;;;;15.87;84.90;99064.69;4938758;28;20496;-64
2021/05/28 01:04:36;;;;;;;290.85;37.17;;;;;;;15.88;84.53;99071.84;4938343;28;20058;-65
2021/05/28 01:07:02;;;;;;;353.42;36.67;;;;;;;15.85;84.46;99078.00;4941607;29;20051;-63
2021/05/28 01:09:29;;;;;;;442.42;46.22;;;;;;;15.73;84.39;99086.94;4940875;28;20143;-64
2021/05/28 01:11:55;;;;;;;358.95;43.28;;;;;;;15.72;84.48;99093.56;4938595;28;20138;-64
2021/05/28 01:14:22;;;;;;;823.22;64.55;;;;;;;15.68;84.59;99080.78;4941927;28;20043;-63
2021/05/28 01:16:48;;;;;;;91.35;28.60;;;;;;;15.78;84.27;99076.88;4939442;28;20056;-65
2021/05/28 01:19:15;;;;;;;294.40;38.05;;;;;;;15.85;83.75;99083.53;4941603;28;20050;-63
2021/05/28 01:21:47;;;;;;;47.88;24.25;;;;;;;15.83;83.79;99077.50;4939478;29;20602;-64
2021/05/28 01:24:14;;;;;;;129.50;31.95;;;;;;;15.71;83.59;99075.44;4939983;29;20050;-63
2021/05/28 01:26:40;;;;;;;91.63;29.25;;;;;;;15.60;83.55;99068.63;4953192;28;20047;-63
2021/05/28 01:29:07;;;;;;;99.15;24.98;;;;;;;15.59;83.94;99065.06;4943934;29;20500;-63
2021/05/28 01:31:33;;;;;;;55.80;23.48;;;;;;;15.65;83.56;99067.66;4939363;28;20285;-63
2021/05/28 01:33:59;;;;;;;255.55;28.33;;;;;;;15.68;83.31;99073.34;4940321;29;20269;-62
2021/05/28 01:36:25;;;;;;;501.33;41.90;;;;;;;15.65;82.92;99070.41;4938260;29;20043;-63
2021/05/28 01:38:51;;;;;;;113.78;22.00;;;;;;;15.63;82.50;99061.66;4943821;28;20527;-64
2021/05/28 01:41:18;;;;;;;141.90;24.17;;;;;;;15.62;82.46;99060.88;4938386;29;20512;-62
2021/05/28 01:43:44;;;;;;;146.80;23.67;;;;;;;15.53;82.73;99071.91;4940399;29;20043;-65
2021/05/28 01:46:10;;;;;;;46.05;20.75;;;;;;;15.56;82.53;99071.25;4940205;29;20517;-65
2021/05/28 01:48:39;;;;;;;44.22;20.25;;;;;;;15.77;82.44;99078.03;4943858;28;20048;-64
2021/05/28 01:51:06;;;;;;;58.70;19.85;;;;;;;15.84;82.11;99070.06;4937527;29;20044;-64
2021/05/28 01:53:32;;;;;;;161.65;23.90;;;;;;;15.82;81.58;99064.84;4940510;28;20052;-64
2021/05/28 01:55:58;;;;;;;54.65;21.73;;;;;;;15.79;81.91;99073.00;4953593;28;20071;-63
2021/05/28 01:58:26;;;;;;;60.72;19.52;;;;;;;15.92;81.41;99066.50;4940496;29;20051;-65
2021/05/28 02:00:56;;;;;;;165.07;22.27;;;;;;;16.00;80.92;99068.41;4940830;28;20408;-63
2021/05/28 02:03:22;;;;;;;242.88;28.08;;;;;;;16.01;81.00;99064.53;4939426;28;20067;-63
2021/05/28 02:05:49;;;;;;;68.28;23.23;;;;;;;15.82;81.42;99058.56;4957027;28;20051;-64
2021/05/28 02:08:15;;;;;;;64.57;22.87;;;;;;;15.79;81.66;99070.25;4942024;29;20090;-63
2021/05/28 02:10:41;;;;;;;43.58;23.15;;;;;;;15.74;81.70;99076.72;4940883;28;20051;-63
2021/05/28 02:13:07;;;;;;;29.45;20.35;;;;;;;15.89;81.60;99080.94;4940450;28;20137;-63
2021/05/28 02:15:34;;;;;;;43.92;22.42;;;;;;;15.95;81.08;99065.84;4939374;29;20074;-63
2021/05/28 02:18:01;;;;;;;32.60;20.65;;;;;;;16.07;80.84;99065.16;4939869;29;20051;-63
2021/05/28 02:20:27;;;;;;;46.50;21.95;;;;;;;16.08;80.71;99061.25;4947514;29;20083;-62
2021/05/28 02:22:53;;;;;;;32.58;20.70;;;;;;;16.20;80.41;99068.81;4938637;28;20039;-62
2021/05/28 02:25:19;;;;;;;97.63;24.10;;;;;;;16.15;80.53;99069.03;4938450;28;20047;-63
2021/05/28 02:27:45;;;;;;;33.80;22.38;;;;;;;16.15;80.55;99069.81;4941345;29;20519;-63
2021/05/28 02:30:14;;;;;;;39.72;21.88;;;;;;;16.22;80.58;99063.78;4935658;29;20048;-64
2021/05/28 02:32:41;;;;;;;38.03;23.67;;;;;;;16.22;80.45;99068.50;4940472;28;20068;-62
2021/05/28 02:35:12;;;;;;;31.83;22.35;;;;;;;16.34;79.98;99068.63;4933692;29;20409;-64
2021/05/28 02:37:38;;;;;;;28.95;20.70;;;;;;;16.41;79.90;99057.88;4938737;29;20066;-63
2021/05/28 02:40:07;;;;;;;34.20;22.58;;;;;;;16.45;79.65;99060.78;4938867;29;20036;-63
2021/05/28 02:42:33;;;;;;;33.00;21.65;;;;;;;16.58;79.50;99047.88;4942056;29;20429;-62
2021/05/28 02:45:01;;;;;;;;;;;;;;;16.72;78.88;99045.69;4938991;29;20047;-62
2021/05/28 02:47:27;;;;;;;28.33;21.23;;;;;;;16.81;78.18;99044.84;4935789;29;19961;-62
2021/05/28 02:49:54;;;;;;;28.77;21.23;;;;;;;16.88;78.01;99042.34;4936945;29;20462;-62
2021/05/28 02:52:20;;;;;;;27.80;21.42;;;;;;;17.01;77.70;99046.00;4942368;29;20059;-62
2021/05/28 02:54:46;;;;;;;32.83;23.67;;;;;;;16.92;77.57;99050.75;4940844;28;20048;-63
2021/05/28 02:57:12;;;;;;;30.25;23.95;;;;;;;16.86;77.78;99048.22;4937140;29;20043;-63
2021/05/28 02:59:39;;;;;;;51.13;39.63;;;;;;;16.89;77.81;99046.72;4934200;28;20061;-63
2021/05/28 03:02:05;;;;;;;30.55;22.60;;;;;;;16.94;77.72;99045.72;4938551;28;20055;-61
2021/05/28 03:04:31;;;;;;;29.77;22.63;;;;;;;16.94;78.06;99043.78;4939814;28;20051;-62
2021/05/28 03:06:58;;;;;;;40.08;26.08;;;;;;;16.84;78.05;99053.22;4934715;29;20194;-63
2021/05/28 03:09:24;;;;;;;36.50;25.20;;;;;;;16.86;78.10;99048.22;4935808;29;20456;-62
2021/05/28 03:11:50;;;;;;;36.70;26.40;;;;;;;16.95;77.69;99044.56;4940099;29;20051;-64
2021/05/28 03:14:17;;;;;;;33.15;24.50;;;;;;;17.01;77.47;99051.50;4940009;28;20412;-63
2021/05/28 03:16:43;;;;;;;28.98;23.67;;;;;;;17.05;77.16;99038.69;4937233;29;20047;-62
2021/05/28 03:19:34;;;;;;;32.53;23.87;;;;;;;17.12;77.20;99043.66;4939289;28;20062;-62
2021/05/28 03:24:46;;;;;;;31.25;23.83;;;;;;;17.18;77.11;99035.97;4938646;28;20098;-62
2021/05/28 03:27:12;;;;;;;34.60;24.50;;;;;;;17.23;76.74;99038.53;4937861;29;20062;-64
2021/05/28 03:29:39;;;;;;;35.05;24.73;;;;;;;17.19;77.04;99043.13;4940117;28;20459;-62
2021/05/28 03:32:05;;;;;;;37.55;25.15;;;;;;;17.25;77.09;99039.81;4940569;29;20051;-64
2021/05/28 03:34:31;;;;;;;33.40;23.98;;;;;;;17.24;76.79;99043.69;4937567;28;20137;-63
2021/05/28 03:36:59;;;;;;;43.40;26.13;;;;;;;17.22;77.25;99047.97;4940468;29;20483;-62
2021/05/28 03:39:26;;;;;;;;;;;;;;;17.22;76.87;99051.50;4937922;29;20097;-63
2021/05/28 03:41:52;;;;;;;32.47;24.10;;;;;;;17.28;76.68;99049.34;4938764;29;19932;-63
2021/05/28 03:44:18;;;;;;;34.80;25.77;;;;;;;17.35;76.76;99046.06;4937707;28;20051;-62
2021/05/28 03:46:44;;;;;;;34.17;24.45;;;;;;;17.40;76.62;99049.41;4941558;28;20055;-64
2021/05/28 03:49:10;;;;;;;35.72;25.27;;;;;;;17.43;76.55;99045.97;4953869;28;20082;-64
2021/05/28 03:51:36;;;;;;;38.63;26.85;;;;;;;17.37;76.80;99046.53;4935012;28;20071;-62
2021/05/28 03:54:03;;;;;;;37.70;26.17;;;;;;;17.34;77.03;99047.19;4938935;28;20110;-62
2021/05/28 03:56:29;;;;;;;34.40;26.38;;;;;;;17.23;76.81;99057.88;4937675;28;20520;-64
2021/05/28 03:58:56;;;;;;;37.75;27.65;;;;;;;17.20;77.31;99061.31;4937219;29;20059;-63
2021/05/28 04:01:22;;;;;;;39.10;28.15;;;;;;;17.05;77.58;99058.00;4937009;29;20071;-64
2021/05/28 04:03:48;;;;;;;39.05;28.35;;;;;;;16.94;77.98;99059.50;4939010;28;20475;-64
2021/05/28 04:06:14;;;;;;;43.10;29.80;;;;;;;16.84;78.34;99063.47;4951346;28;20055;-63
2021/05/28 04:08:40;;;;;;;38.72;29.48;;;;;;;16.80;78.95;99060.56;4936305;29;20138;-64
2021/05/28 04:11:05;;;;;;;39.83;30.10;;;;;;;16.71;78.90;99065.34;4934703;29;20043;-65
2021/05/28 04:13:33;;;;;;;39.25;27.90;;;;;;;16.77;78.63;99069.53;4938823;28;20166;-64
2021/05/28 04:16:00;;;;;;;38.85;29.48;;;;;;;16.69;78.79;99073.13;4937146;29;20055;-66
2021/05/28 04:18:26;;;;;;;37.08;29.52;;;;;;;16.70;79.28;99075.56;4937647;29;20043;-65
2021/05/28 04:20:52;;;;;;;41.67;29.73;;;;;;;16.59;79.27;99077.91;4939102;28;20098;-66
2021/05/28 04:23:19;;;;;;;42.40;30.10;;;;;;;16.43;80.17;99079.63;4941122;29;20615;-63
2021/05/28 04:25:46;;;;;;;42.50;31.33;;;;;;;16.26;80.50;99078.56;4942958;29;20071;-64
2021/05/28 04:28:12;;;;;;;44.55;31.38;;;;;;;16.27;81.00;99084.88;4940709;28;20051;-64
2021/05/28 04:30:40;;;;;;;43.30;31.73;;;;;;;16.27;80.91;99090.38;4940748;29;20060;-63
2021/05/28 04:33:06;;;;;;;43.78;31.00;;;;;;;16.19;81.30;99091.25;4943246;28;20110;-62
2021/05/28 04:35:32;;;;;;;52.53;30.85;;;;;;;16.15;81.20;99085.56;4942310;28;20073;-63
2021/05/28 04:37:58;;;;;;;45.35;29.25;;;;;;;16.22;81.33;99090.56;4942502;28;20055;-63
2021/05/28 04:40:26;;;;;;;40.35;29.65;;;;;;;16.12;81.30;99087.03;4941040;28;20095;-64
2021/05/28 04:42:52;;;;;;;41.47;29.35;;;;;;;16.17;81.45;99086.03;4943747;29;20054;-64
2021/05/28 04:45:18;;;;;;;44.08;29.02;;;;;;;16.06;81.44;99084.78;4938613;29;20075;-63
2021/05/28 04:47:45;;;;;;;36.55;27.23;;;;;;;16.18;81.29;99081.34;4944394;29;20075;-64
2021/05/28 04:50:12;;;;;;;36.50;26.00;;;;;;;16.29;80.91;99079.81;4941929;29;20048;-62
2021/05/28 04:52:38;;;;;;;41.65;26.83;;;;;;;16.27;80.87;99069.13;4942957;28;20047;-63
2021/05/28 04:55:05;;;;;;;37.90;27.35;;;;;;;16.36;80.94;99076.56;4941926;29;20115;-63
2021/05/28 04:57:31;;;;;;;34.03;25.55;;;;;;;16.44;80.67;99068.22;4944221;29;20055;-65
2021/05/28 04:59:57;;;;;;;30.38;23.58;;;;;;;16.41;80.44;99063.38;4941081;28;20702;-64
2021/05/28 05:02:24;;;;;;;31.92;24.00;;;;;;;16.55;80.10;99067.88;4943085;29;20048;-65
2021/05/28 05:04:50;;;;;;;31.98;23.42;;;;;;;16.63;80.17;99072.53;4938930;28;20062;-62
2021/05/28 05:07:16;;;;;;;30.50;23.50;;;;;;;16.69;79.96;99065.69;4941210;28;20448;-65
2021/05/28 05:09:42;;;;;;;30.60;22.80;;;;;;;16.83;79.25;99059.91;4942069;28;20043;-64
2021/05/28 05:12:09;;;;;;;33.65;24.50;;;;;;;16.94;79.34;99054.00;4942855;28;20110;-65
2021/05/28 05:14:35;;;;;;;32.03;23.97;;;;;;;17.06;78.54;99062.38;4940762;29;20050;-63
2021/05/28 05:17:01;;;;;;;36.15;23.05;;;;;;;17.16;78.40;99061.16;4957199;28;20121;-65
2021/05/28 05:19:27;;;;;;;30.73;22.52;;;;;;;17.24;78.27;99060.28;4944196;28;20075;-66
2021/05/28 05:21:54;;;;;;;31.20;22.65;;;;;;;17.40;77.87;99062.41;4937749;29;20078;-65
2021/05/28 05:24:20;;;;;;;26.10;20.95;;;;;;;17.52;77.48;99069.97;4942066;29;20055;-64
2021/05/28 05:26:46;;;;;;;29.13;21.98;;;;;;;17.49;77.05;99062.38;4931378;29;20073;-65
2021/05/28 05:29:12;;;;;;;35.17;24.55;;;;;;;17.37;77.61;99072.22;4943731;28;20044;-64
2021/05/28 05:31:40;;;;;;;31.33;22.40;;;;;;;17.38;78.07;99065.53;4942683;28;20471;-64
2021/05/28 05:34:06;;;;;;;31.63;24.20;;;;;;;17.19;78.21;99065.22;4939656;29;20047;-63
2021/05/28 05:36:38;;;;;;;30.05;23.83;;;;;;;17.12;78.78;99065.75;4939780;29;20054;-65
2021/05/28 05:39:06;;;;;;;29.08;23.15;;;;;;;17.10;78.45;99059.75;4941731;28;20520;-64
2021/05/28 05:41:32;;;;;;;;;;;;;;;17.12;78.54;99052.75;4939184;29;20067;-64
2021/05/28 05:43:58;;;;;;;31.38;23.55;;;;;;;17.12;78.08;99055.50;4940131;29;20410;-62
2021/05/28 05:46:25;;;;;;;30.33;23.15;;;;;;;17.23;78.12;99055.91;4948495;28;20421;-64
2021/05/28 05:48:51;;;;;;;30.70;23.35;;;;;;;17.35;77.95;99046.88;4940164;28;20047;-65
2021/05/28 05:51:17;;;;;;;29.17;22.15;;;;;;;17.50;77.57;99052.91;4939151;29;20134;-64
2021/05/28 05:53:43;;;;;;;29.52;23.52;;;;;;;17.56;77.43;99046.84;4939955;28;20055;-64
2021/05/28 05:56:10;;;;;;;26.40;22.05;;;;;;;17.65;77.47;99038.47;4941558;28;20087;-63
2021/05/28 05:58:36;;;;;;;27.45;22.23;;;;;;;17.79;76.57;99049.19;4942352;29;20077;-63
2021/05/28 06:01:02;;;;;;;28.40;21.70;;;;;;;17.93;76.36;99048.09;4941552;29;20047;-65
2021/05/28 06:03:28;;;;;;;29.23;21.38;;;;;;;17.96;76.32;99047.38;4939544;29;20061;-63
2021/05/28 06:05:57;;;;;;;27.55;22.38;;;;;;;17.91;75.91;99062.25;4938288;28;20040;-63
2021/05/28 06:08:22;;;;;;;25.92;20.50;;;;;;;17.93;76.09;99054.41;4939776;28;20389;-62
2021/05/28 06:10:48;;;;;;;24.10;19.95;;;;;;;18.05;75.55;99048.13;4932496;29;20072;-62
2021/05/28 06:13:15;;;;;;;27.05;20.55;;;;;;;18.22;75.22;99043.53;4940647;28;20051;-64
2021/05/28 06:15:41;;;;;;;30.20;20.88;;;;;;;18.35;74.95;99036.88;4942521;28;20044;-64
2021/05/28 06:18:07;;;;;;;25.92;20.10;;;;;;;18.49;74.03;99041.22;4941273;28;20062;-65
2021/05/28 06:20:34;;;;;;;25.25;20.50;;;;;;;18.60;74.04;99036.03;4937796;29;20039;-61
2021/05/28 06:23:00;;;;;;;27.35;18.75;;;;;;;18.80;73.48;99032.31;4939366;28;20051;-64
2021/05/28 06:25:27;;;;;;;26.02;20.60;;;;;;;18.96;72.84;99031.59;4937556;29;20105;-64
2021/05/28 06:27:53;;;;;;;27.13;20.45;;;;;;;19.07;72.53;99031.94;4939226;29;20571;-65
2021/05/28 06:30:20;;;;;;;23.17;20.05;;;;;;;19.20;72.16;99029.91;4940327;29;20044;-64
2021/05/28 06:32:48;;;;;;;25.75;20.95;;;;;;;19.35;71.91;99028.38;4940102;29;20077;-65
2021/05/28 06:35:14;;;;;;;26.15;19.52;;;;;;;19.44;71.86;99019.91;4938683;29;20051;-64
2021/05/28 06:37:39;;;;;;;25.05;19.60;;;;;;;19.61;71.32;99024.34;4940981;28;20047;-64
2021/05/28 06:40:07;;;;;;;25.23;19.42;;;;;;;19.74;70.91;99033.38;4940041;29;20052;-64
2021/05/28 06:42:33;;;;;;;26.65;20.00;;;;;;;19.76;70.80;99036.59;4938610;28;20489;-64
2021/05/28 06:45:00;;;;;;;27.35;21.35;;;;;;;19.63;71.15;99036.66;4940618;28;20051;-62
2021/05/28 06:47:27;;;;;;;25.85;19.92;;;;;;;19.70;71.29;99036.88;4941424;28;20051;-64
2021/05/28 06:49:53;;;;;;;25.15;19.17;;;;;;;19.88;70.58;99039.31;4942785;29;20070;-65
2021/05/28 06:52:19;;;;;;;27.08;19.48;;;;;;;20.01;69.90;99030.94;4940409;28;20106;-64
2021/05/28 06:54:45;;;;;;;23.42;18.52;;;;;;;20.22;69.45;99033.44;4942028;29;20134;-65
2021/05/28 06:57:12;;;;;;;26.05;18.92;;;;;;;20.45;68.94;99036.38;4939693;29;20583;-61
2021/05/28 06:59:38;;;;;;;25.13;18.97;;;;;;;20.48;68.52;99023.72;4940970;29;20066;-64
2021/05/28 07:02:06;;;;;;;24.83;19.52;;;;;;;20.54;68.33;99036.97;4939277;28;20314;-63
2021/05/28 07:04:33;;;;;;;24.85;18.05;;;;;;;20.66;67.85;99024.16;4938328;28;20052;-65
2021/05/28 07:06:59;;;;;;;;;;;;;;;20.69;67.64;99027.03;4941239;29;20445;-65
2021/05/28 07:09:25;;;;;;;25.85;17.85;;;;;;;20.75;67.47;99023.94;4939312;29;19926;-64
2021/05/28 07:11:51;;;;;;;20.30;17.10;;;;;;;20.88;66.75;99025.47;4938510;29;20138;-64
2021/05/28 07:14:17;;;;;;;25.42;18.42;;;;;;;20.92;66.71;99036.66;4940447;28;20132;-64
2021/05/28 07:16:46;;;;;;;21.45;17.95;;;;;;;20.81;67.07;99028.91;4938537;28;20182;-64
2021/05/28 07:19:13;;;;;;;30.08;16.52;;;;;;;20.91;67.29;99040.59;4938801;29;20057;-64
2021/05/28 07:21:40;;;;;;;20.85;15.80;;;;;;;20.89;67.10;99040.16;4938904;29;20482;-64
2021/05/28 07:24:06;;;;;;;28.73;16.60;;;;;;;20.96;66.88;99035.56;4938772;29;20560;-66
2021/05/28 07:26:33;;;;;;;19.30;15.50;;;;;;;20.92;67.09;99031.91;4941121;28;20067;-64
2021/05/28 07:28:59;;;;;;;21.85;14.48;;;;;;;21.01;66.75;99019.78;4939838;28;20043;-63
2021/05/28 07:31:26;;;;;;;19.33;15.07;;;;;;;21.21;66.31;99028.91;4939336;29;20389;-64
2021/05/28 07:33:51;;;;;;;24.60;16.02;;;;;;;21.27;65.72;99026.66;4939601;28;20047;-64
2021/05/28 07:36:21;;;;;;;20.45;16.05;;;;;;;21.33;65.32;99026.00;4941663;29;20477;-66
2021/05/28 07:38:48;;;;;;;23.58;14.95;;;;;;;21.49;65.31;99028.69;4938588;28;20063;-64
2021/05/28 07:41:14;;;;;;;21.90;15.27;;;;;;;21.52;64.71;99024.34;4938369;29;20538;-63
2021/05/28 07:43:41;;;;;;;16.65;13.32;;;;;;;21.45;64.28;99036.13;4941200;29;20134;-64
2021/05/28 07:46:09;;;;;;;23.02;13.05;;;;;;;21.33;64.25;99034.31;4938826;28;20147;-61
2021/05/28 07:48:37;;;;;;;20.58;12.77;;;;;;;21.38;64.19;99025.69;4946795;28;20043;-64
2021/05/28 07:51:03;;;;;;;20.38;14.07;;;;;;;21.59;64.19;99030.06;4936810;29;20102;-63
2021/05/28 07:53:30;;;;;;;25.87;14.20;;;;;;;21.20;64.05;99022.56;4936809;28;20066;-63
2021/05/28 07:56:05;;;;;;;22.83;13.82;;;;;;;20.83;65.13;99031.28;4937139;28;20311;-65
2021/05/28 07:58:31;;;;;;;18.00;14.30;;;;;;;21.16;64.60;99024.47;4944403;29;20075;-64
2021/05/28 08:00:58;;;;;;;23.88;13.85;;;;;;;21.46;63.73;99021.06;4940701;28;20545;-66
2021/05/28 08:03:24;;;;;;;21.33;12.63;;;;;;;21.74;62.97;99022.81;4942688;28;20129;-66
2021/05/28 08:05:51;;;;;;;22.17;12.45;;;;;;;22.00;61.96;99023.25;4941442;29;20126;-68
2021/05/28 08:08:17;;;;;;;23.38;12.85;;;;;;;22.04;61.40;99024.13;4944661;28;20040;-66
2021/05/28 08:10:43;;;;;;;19.05;11.38;;;;;;;22.01;62.42;99022.06;4939331;28;20398;-66
2021/05/28 08:13:10;;;;;;;24.55;10.90;;;;;;;21.79;61.43;99024.50;4940876;29;20059;-69
2021/05/28 08:15:37;;;;;;;19.00;10.82;;;;;;;22.02;61.60;99015.38;4943076;29;20134;-67
2021/05/28 08:18:03;;;;;;;25.60;11.40;;;;;;;22.19;61.33;99014.84;4957049;28;20062;-64
2021/05/28 08:20:29;;;;;;;24.98;10.85;;;;;;;22.30;60.45;99003.06;4940410;29;20047;-66
2021/05/28 08:22:58;;;;;;;16.90;9.50;;;;;;;22.31;60.07;98980.44;4940982;28;20151;-68
2021/05/28 08:25:24;;;;;;;21.17;9.80;;;;;;;22.46;59.43;98995.34;4942212;28;20098;-63
2021/05/28 08:27:50;;;;;;;20.88;9.68;;;;;;;22.62;58.84;98998.00;4943236;28;20054;-66
2021/05/28 08:30:18;;;;;;;19.42;8.88;;;;;;;22.65;58.81;98996.47;4942854;28;20051;-64
2021/05/28 08:32:45;;;;;;;17.13;8.40;;;;;;;22.72;58.58;98998.56;4950247;28;20119;-64
2021/05/28 08:35:12;;;;;;;;;;;;;;;22.83;57.87;98995.91;4944760;28;20464;-64
2021/05/28 08:37:38;;;;;;;22.40;8.50;;;;;;;22.61;57.77;98999.19;4940030;28;19930;-66
2021/05/28 08:40:05;;;;;;;27.10;9.43;;;;;;;22.64;56.93;99000.44;4945059;28;20051;-64
2021/05/28 08:42:32;;;;;;;32.92;9.43;;;;;;;22.51;56.91;98999.84;4940996;29;20043;-64
2021/05/28 08:44:58;;;;;;;19.65;8.20;;;;;;;22.76;56.94;98991.03;4956050;28;20733;-65
2021/05/28 08:47:25;;;;;;;28.00;9.02;;;;;;;22.75;56.24;98992.22;4942648;28;20084;-66
2021/05/28 08:49:52;;;;;;;15.85;8.02;;;;;;;22.51;56.85;98997.06;4940832;28;20103;-65
2021/05/28 08:52:20;;;;;;;20.60;7.20;;;;;;;22.55;56.67;98997.91;4940297;29;20094;-65
2021/05/28 08:54:47;;;;;;;16.33;7.05;;;;;;;22.52;55.70;98995.88;4941696;28;20160;-64
2021/05/28 08:57:13;;;;;;;14.13;6.10;;;;;;;22.40;54.98;98991.28;4953796;28;20047;-64
2021/05/28 08:59:40;;;;;;;15.55;6.10;;;;;;;22.04;55.68;98999.09;4939709;28;20051;-63
2021/05/28 09:02:29;;;;;;;17.63;5.80;;;;;;;22.38;55.23;98991.66;4940858;29;20050;-64
2021/05/28 09:05:07;;;;;;;11.95;5.90;;;;;;;22.49;54.54;98994.66;4939178;29;20056;-64
2021/05/28 09:07:34;;;;;;;13.60;5.95;;;;;;;22.61;54.74;98998.38;4941738;28;20067;-64
2021/05/28 09:09:59;;;;;;;11.60;5.25;;;;;;;22.99;52.66;98979.78;4941026;28;20095;-62
2021/05/28 09:12:26;;;;;;;10.95;4.80;;;;;;;23.24;51.99;98987.63;4939374;28;20057;-64
2021/05/28 09:14:53;;;;;;;15.10;5.63;;;;;;;23.42;51.25;98984.31;4937005;28;20131;-63
2021/05/28 09:17:20;;;;;;;14.40;6.28;;;;;;;23.18;51.45;98986.38;4937030;28;20322;-64
2021/05/28 09:19:52;;;;;;;22.05;6.15;;;;;;;23.29;51.42;98986.53;4940112;29;20056;-65
2021/05/28 09:22:20;;;;;;;12.00;5.25;;;;;;;23.20;51.23;98973.69;4937793;29;20507;-62
2021/05/28 09:24:46;;;;;;;12.75;5.45;;;;;;;23.28;51.28;98977.38;4933975;28;20099;-64
2021/05/28 09:27:23;;;;;;;9.88;5.10;;;;;;;23.47;50.12;98986.75;4933823;29;20127;-63
2021/05/28 09:30:07;;;;;;;12.40;5.00;;;;;;;23.82;48.60;98979.91;4935588;28;20106;-67
2021/05/28 09:32:35;;;;;;;10.38;4.80;;;;;;;23.94;47.96;98971.22;4942964;29;20579;-64
2021/05/28 09:35:05;;;;;;;10.48;4.90;;;;;;;23.99;47.66;98977.63;4932166;29;20044;-63
2021/05/28 09:37:40;;;;;;;11.25;4.57;;;;;;;23.76;48.14;98970.28;4938738;28;20187;-62
2021/05/28 09:40:13;;;;;;;9.00;4.40;;;;;;;23.78;47.14;98974.28;4939520;29;20074;-65
2021/05/28 09:42:51;;;;;;;11.60;4.40;;;;;;;23.58;46.87;98982.09;4940286;29;20427;-65
2021/05/28 09:45:22;;;;;;;10.93;4.60;;;;;;;23.65;46.49;98984.13;4941281;29;20047;-63
2021/05/28 09:47:49;;;;;;;10.40;4.78;;;;;;;23.65;46.84;98973.75;4939996;29;20129;-67
2021/05/28 09:50:17;;;;;;;8.40;4.50;;;;;;;23.78;47.48;98968.69;4958237;28;20138;-65
2021/05/28 09:52:44;;;;;;;11.48;5.10;;;;;;;22.45;49.14;98974.25;4946808;28;20056;-66
2021/05/28 09:55:11;;;;;;;9.45;4.22;;;;;;;21.22;51.50;98972.16;4950648;28;20141;-66
2021/05/28 09:57:39;;;;;;;10.68;5.57;;;;;;;21.53;51.32;98956.44;4939202;29;20058;-68
2021/05/28 10:00:09;;;;;;;13.23;6.80;;;;;;;21.87;51.27;98973.38;4937878;29;20044;-65
2021/05/28 10:02:45;;;;;;;12.45;6.03;;;;;;;21.52;52.20;98965.97;4938861;28;20559;-66
2021/05/28 10:05:12;;;;;;;11.65;5.40;;;;;;;21.79;52.73;98957.72;4939217;29;20040;-65
2021/05/28 10:07:40;;;;;;;11.05;5.60;;;;;;;22.45;51.74;98971.47;4936811;28;20050;-67
2021/05/28 10:10:07;;;;;;;10.80;5.55;;;;;;;22.70;51.32;98965.50;4939343;28;20045;-65
2021/05/28 10:12:34;;;;;;;10.48;5.40;;;;;;;22.79;51.70;98966.03;4937201;29;20583;-66
2021/05/28 10:15:00;;;;;;;14.05;5.20;;;;;;;22.84;51.83;98955.72;4934272;29;20048;-65
2021/05/28 10:17:26;;;;;;;11.07;5.20;;;;;;;22.99;51.38;98956.69;4938389;29;20064;-64
2021/05/28 10:19:52;;;;;;;12.25;5.38;;;;;;;23.11;51.27;98956.44;4940158;28;20051;-64
2021/05/28 10:22:21;;;;;;;9.93;5.32;;;;;;;23.03;50.91;98963.91;4927190;29;20047;-65
2021/05/28 10:24:48;;;;;;;14.48;5.50;;;;;;;22.73;51.00;98961.94;4939772;29;20048;-65
2021/05/28 10:27:23;;;;;;;13.20;5.20;;;;;;;22.71;51.36;98958.75;4935160;28;20047;-64
2021/05/28 10:29:50;;;;;;;12.32;5.50;;;;;;;22.60;51.23;98957.78;4937328;28;20055;-65
2021/05/28 10:32:16;;;;;;;;;;;;;;;22.62;50.89;98961.00;4932208;29;20054;-63
2021/05/28 10:35:13;;;;;;;10.93;4.90;;;;;;;22.60;50.96;98966.94;4934792;29;19927;-64
2021/05/28 10:37:42;;;;;;;15.25;5.40;;;;;;;22.39;51.58;98956.28;4878545;29;20057;-63
2021/05/28 10:43:05;;;;;;;14.02;4.90;;;;;;;22.33;51.47;98957.78;4970307;28;20047;-64
2021/05/28 10:46:04;;;;;;;10.48;5.50;;;;;;;22.02;52.16;98959.72;4979042;28;20050;-62
2021/05/28 10:49:09;;;;;;;10.68;5.57;;;;;;;22.00;52.46;98956.47;4981636;28;20500;-63
2021/05/28 10:51:58;;;;;;;10.00;5.53;;;;;;;21.96;52.82;98962.00;4961505;28;20110;-61
2021/05/28 10:54:27;;;;;;;10.55;5.43;;;;;;;21.86;53.17;98960.66;4961988;28;20150;-64
2021/05/28 10:56:53;;;;;;;16.50;5.78;;;;;;;21.72;53.15;98958.41;4962267;28;20407;-62
2021/05/28 10:59:21;;;;;;;15.25;5.95;;;;;;;21.07;53.19;98957.19;4962997;28;20043;-62
2021/05/28 11:01:49;;;;;;;16.77;5.00;;;;;;;20.86;52.75;98957.53;4961223;28;20059;-63
2021/05/28 11:04:17;;;;;;;14.90;5.32;;;;;;;20.72;53.07;98946.91;4961538;28;20063;-64
2021/05/28 11:07:14;;;;;;;12.48;5.40;;;;;;;20.52;53.67;98963.53;4961207;28;20062;-63
2021/05/28 11:09:41;;;;;;;14.35;4.85;;;;;;;20.24;54.68;98959.75;4960945;28;20543;-64
2021/05/28 11:12:08;;;;;;;16.05;5.93;;;;;;;20.36;54.78;98969.13;4961579;28;20081;-63
2021/05/28 11:14:36;;;;;;;14.60;5.55;;;;;;;20.49;54.46;98953.97;4961370;28;20055;-62
2021/05/28 11:17:10;;;;;;;16.40;6.10;;;;;;;;;;4961414;28;20499;-62
2021/05/28 11:19:42;;;;;;;15.45;5.82;;;;;;;20.23;54.02;98947.03;4960869;28;20039;-65
2021/05/28 11:22:14;;;;;;;18.20;5.20;;;;;;;19.93;53.16;98946.72;4962623;28;20128;-64
2021/05/28 11:24:43;;;;;;;8.85;4.20;;;;;;;19.72;52.19;98950.53;4961489;28;20193;-62
2021/05/28 11:27:12;;;;;;;12.10;4.50;;;;;;;19.86;52.01;98952.06;4961234;28;20145;-64
2021/05/28 11:29:39;;;;;;;15.77;5.72;;;;;;;19.88;52.40;98950.56;4962357;28;20057;-63